Time;durP1;ratioP1;P1;durP2;ratioP2;P2;SDS_P1;SDS_P2;PMS_P1;PMS_P2;Temp;Humidity;BMP_temperature;BMP_pressure;BME280_temperature;BME280_humidity;BME280_pressure;Samples;Min_cycle;Max_cycle;Signal;HPM_P1;HPM_P2
2022/11/11 00:02:03;;;;;;;11.30;6.38;;;12.10;99.90;;;;;;5036487;28;20068;-65
2022/11/11 00:04:28;;;;;;;14.18;6.63;;;12.10;99.90;;;;;;5055141;28;20037;-64
2022/11/11 00:06:54;;;;;;;14.77;7.22;;;12.10;99.90;;;;;;5037293;28;20056;-65
2022/11/11 00:09:20;;;;;;;15.18;8.48;;;12.10;99.90;;;;;;5019888;28;20509;-64
2022/11/11 00:11:45;;;;;;;11.80;7.07;;;12.10;99.90;;;;;;5054908;28;20045;-65
2022/11/11 00:14:11;;;;;;;13.00;7.93;;;12.10;99.90;;;;;;5036550;28;20083;-64
2022/11/11 00:25:05;;;;;;;16.95;8.27;;;12.00;99.90;;;;;;5036508;28;20126;-65
2022/11/11 00:27:31;;;;;;;17.67;8.25;;;12.00;99.90;;;;;;5054504;28;20081;-65
2022/11/11 00:29:56;;;;;;;15.10;8.35;;;12.00;99.90;;;;;;5036193;28;20470;-65
2022/11/11 00:32:22;;;;;;;13.02;8.70;;;12.00;99.90;;;;;;5037231;28;20051;-64
2022/11/11 00:37:34;;;;;;;19.80;9.02;;;12.00;99.90;;;;;;5036697;28;20166;-65
2022/11/11 00:39:59;;;;;;;15.18;8.77;;;12.00;99.90;;;;;;5036496;28;20037;-64
2022/11/11 00:42:26;;;;;;;14.80;8.27;;;11.90;99.90;;;;;;5053404;28;20083;-65
2022/11/11 00:44:52;;;;;;;15.27;9.55;;;11.90;99.90;;;;;;5036290;28;20037;-64
2022/11/11 00:53:02;;;;;;;18.75;8.25;;;11.90;99.90;;;;;;5036099;28;20045;-65
2022/11/11 00:55:28;;;;;;;16.88;8.20;;;11.90;99.90;;;;;;5019421;28;20544;-65
2022/11/11 00:57:54;;;;;;;16.58;9.23;;;11.90;99.90;;;;;;5035199;28;20128;-65
2022/11/11 01:00:19;;;;;;;16.67;8.15;;;11.90;99.90;;;;;;5036414;28;20041;-64
2022/11/11 01:02:45;;;;;;;13.63;9.18;;;11.90;99.90;;;;;;5036085;28;20073;-65
2022/11/11 01:05:11;;;;;;;15.35;9.25;;;12.00;99.90;;;;;;5018959;28;20079;-64
2022/11/11 01:07:36;;;;;;;19.23;10.32;;;11.90;99.90;;;;;;5054034;28;20076;-65
2022/11/11 01:10:02;;;;;;;21.35;9.57;;;11.90;99.90;;;;;;5053657;28;20569;-65
2022/11/11 01:12:28;;;;;;;14.48;8.52;;;11.90;99.90;;;;;;5052937;28;20151;-64
2022/11/11 01:14:53;;;;;;;15.32;8.60;;;11.90;99.90;;;;;;5035918;28;20117;-65
2022/11/11 01:17:19;;;;;;;17.02;8.80;;;11.90;99.90;;;;;;5052812;28;20102;-64
2022/11/11 01:19:45;;;;;;;13.93;8.40;;;11.90;99.90;;;;;;5035742;28;20040;-65
2022/11/11 01:22:10;;;;;;;18.73;8.98;;;11.90;99.90;;;;;;5036042;28;20041;-65
2022/11/11 01:24:37;;;;;;;20.25;9.32;;;11.90;99.90;;;;;;5034672;28;20048;-65
2022/11/11 01:27:03;;;;;;;16.23;8.77;;;11.90;99.90;;;;;;5019039;28;20079;-64
2022/11/11 01:29:28;;;;;;;18.73;8.40;;;11.90;99.90;;;;;;5053505;28;20068;-64
2022/11/11 01:31:54;;;;;;;16.52;8.60;;;11.90;99.90;;;;;;5017936;28;20482;-64
2022/11/11 01:34:20;;;;;;;13.50;8.15;;;11.90;99.90;;;;;;5053196;28;20041;-65
2022/11/11 01:36:45;;;;;;;16.27;8.35;;;11.90;99.90;;;;;;5035392;28;20036;-65
2022/11/11 01:39:11;;;;;;;15.18;8.38;;;11.90;99.90;;;;;;5034866;28;20433;-64
2022/11/11 01:41:37;;;;;;;16.35;8.73;;;11.90;99.90;;;;;;5035338;28;20474;-64
2022/11/11 01:44:11;;;;;;;18.08;9.18;;;11.90;99.90;;;;;;5018643;28;20053;-64
2022/11/11 01:46:49;;;;;;;14.52;8.80;;;11.90;99.90;;;;;;5034072;28;20045;-65
2022/11/11 01:49:31;;;;;;;15.27;8.02;;;11.90;99.90;;;;;;5052985;28;20397;-65
2022/11/11 01:52:08;;;;;;;16.13;8.95;;;11.90;99.90;;;;;;5035230;28;20044;-65
2022/11/11 01:54:51;;;;;;;17.60;9.38;;;11.90;99.90;;;;;;5017614;28;20041;-65
2022/11/11 01:57:48;;;;;;;15.55;9.15;;;11.90;99.90;;;;;;5035054;28;20120;-65
2022/11/11 02:00:16;;;;;;;14.60;8.88;;;11.90;99.90;;;;;;5034254;28;20045;-64
2022/11/11 02:02:56;;;;;;;20.10;9.85;;;12.00;99.90;;;;;;5052709;28;20036;-65
2022/11/11 02:05:42;;;;;;;14.38;9.40;;;12.00;99.90;;;;;;5035159;28;20406;-65
2022/11/11 02:08:31;;;;;;;20.55;10.02;;;11.90;99.90;;;;;;5051917;28;20068;-65
2022/11/11 02:11:01;;;;;;;21.23;9.82;;;11.90;99.90;;;;;;5052599;28;20048;-65
2022/11/11 02:16:11;;;;;;;16.60;9.07;;;11.90;99.90;;;;;;5034821;28;20055;-64
2022/11/11 02:18:37;;;;;;;15.43;9.90;;;11.90;99.90;;;;;;5034671;28;20041;-65
2022/11/11 02:21:03;;;;;;;16.83;9.30;;;11.90;99.90;;;;;;5033832;28;20110;-65
2022/11/11 02:23:35;;;;;;;17.10;10.63;;;11.90;99.90;;;;;;5052400;28;20029;-65
2022/11/11 02:26:04;;;;;;;23.70;11.48;;;11.90;99.90;;;;;;5052244;28;20064;-65
2022/11/11 02:28:32;;;;;;;22.60;10.80;;;11.80;99.90;;;;;;5033597;28;20098;-65
2022/11/11 02:30:58;;;;;;;18.23;11.07;;;11.80;99.90;;;;;;5017902;28;20048;-65
2022/11/11 02:33:23;;;;;;;17.00;11.38;;;11.80;99.90;;;;;;5034661;28;20041;-65
2022/11/11 02:35:57;;;;;;;18.38;11.20;;;11.80;99.90;;;;;;5051590;28;20488;-65
2022/11/11 02:38:24;;;;;;;19.60;11.82;;;11.70;99.90;;;;;;5052331;28;20048;-65
2022/11/11 02:43:35;;;;;;;17.05;11.00;;;11.70;99.90;;;;;;5033539;28;20056;-65
2022/11/11 02:46:03;;;;;;;22.15;12.02;;;11.70;99.90;;;;;;5018048;28;20470;-65
2022/11/11 02:48:30;;;;;;;20.30;13.00;;;11.70;99.90;;;;;;5034411;28;20068;-65
2022/11/11 02:50:56;;;;;;;22.65;12.10;;;11.70;99.90;;;;;;5033479;28;20041;-65
2022/11/11 02:53:21;;;;;;;21.13;13.77;;;11.60;99.90;;;;;;5017569;28;20501;-65
2022/11/11 02:55:47;;;;;;;20.15;12.82;;;11.60;99.90;;;;;;5016867;28;20043;-65
2022/11/11 02:58:14;;;;;;;24.05;13.10;;;11.60;99.90;;;;;;5052271;28;20052;-65
2022/11/11 03:00:41;;;;;;;23.27;14.10;;;11.60;99.90;;;;;;5034347;28;20063;-65
2022/11/11 03:03:07;;;;;;;24.38;13.57;;;11.60;99.90;;;;;;5051105;28;20041;-65
2022/11/11 03:05:32;;;;;;;22.13;13.77;;;11.60;99.90;;;;;;5033775;28;20048;-66
2022/11/11 03:07:58;;;;;;;24.85;14.13;;;11.60;99.90;;;;;;5033847;28;20052;-65
2022/11/11 03:10:24;;;;;;;22.95;13.75;;;11.60;99.90;;;;;;5033046;28;20045;-65
2022/11/11 03:12:49;;;;;;;29.17;15.63;;;11.60;99.90;;;;;;5017760;28;20394;-65
2022/11/11 03:15:15;;;;;;;23.33;14.57;;;11.60;99.90;;;;;;5051643;28;20044;-65
2022/11/11 03:17:40;;;;;;;24.10;13.95;;;11.50;99.90;;;;;;5051474;28;20040;-64
2022/11/11 03:23:03;;;;;;;24.23;16.02;;;11.60;99.90;;;;;;5033704;28;20129;-64
2022/11/11 03:25:39;;;;;;;23.40;14.27;;;11.50;99.90;;;;;;5022472;28;20092;-64
2022/11/11 03:28:16;;;;;;;21.23;14.68;;;11.60;99.90;;;;;;5013886;28;20057;-65
2022/11/11 03:30:44;;;;;;;22.77;16.13;;;11.60;99.90;;;;;;5013991;28;20128;-65
2022/11/11 03:33:11;;;;;;;25.48;15.40;;;11.50;99.90;;;;;;4996961;28;20125;-64
2022/11/11 03:35:37;;;;;;;26.77;16.73;;;11.50;99.90;;;;;;4997684;28;20056;-64
2022/11/11 03:38:23;;;;;;;25.88;16.23;;;11.50;99.90;;;;;;5013049;28;20050;-65
2022/11/11 03:40:56;;;;;;;26.48;17.88;;;11.50;99.90;;;;;;5013944;28;20096;-66
2022/11/11 03:43:33;;;;;;;25.10;16.73;;;11.50;99.90;;;;;;5013850;28;20124;-65
2022/11/11 03:46:00;;;;;;;24.10;15.50;;;11.50;99.90;;;;;;5030941;28;20041;-64
2022/11/11 03:48:28;;;;;;;27.33;16.65;;;11.40;99.90;;;;;;5031230;28;20033;-65
2022/11/11 03:50:54;;;;;;;27.40;18.10;;;11.40;99.90;;;;;;5030901;28;20047;-65
2022/11/11 03:53:20;;;;;;;22.65;17.20;;;11.40;99.90;;;;;;5030571;28;20037;-64
2022/11/11 03:55:46;;;;;;;29.42;19.13;;;11.40;99.90;;;;;;5031455;28;20076;-65
2022/11/11 03:58:13;;;;;;;27.60;18.00;;;11.40;99.90;;;;;;5031499;28;20081;-64
2022/11/11 04:00:38;;;;;;;29.27;18.52;;;11.40;99.90;;;;;;5012830;28;20030;-64
2022/11/11 04:11:50;;;;;;;31.40;18.87;;;11.40;99.90;;;;;;5033592;28;20052;-64
2022/11/11 04:16:59;;;;;;;31.13;20.45;;;11.40;99.90;;;;;;5016818;28;20056;-65
2022/11/11 04:22:10;;;;;;;27.65;19.65;;;11.40;99.90;;;;;;5016731;28;20060;-65
2022/11/11 04:27:20;;;;;;;34.77;19.13;;;11.30;99.90;;;;;;5053858;28;20048;-65
2022/11/11 04:29:46;;;;;;;32.95;21.15;;;11.30;99.90;;;;;;5020449;28;20282;-65
2022/11/11 04:32:37;;;;;;;30.85;20.73;;;11.30;99.90;;;;;;5036910;28;20057;-65
2022/11/11 04:35:09;;;;;;;34.63;22.80;;;11.30;99.90;;;;;;5053739;28;20049;-65
2022/11/11 04:37:44;;;;;;;28.73;19.48;;;11.30;99.90;;;;;;5036452;28;20049;-65
2022/11/11 04:42:54;;;;;;;36.38;20.40;;;11.20;99.90;;;;;;5053502;28;20433;-64
2022/11/11 04:45:34;;;;;;;29.40;19.20;;;11.20;99.90;;;;;;5020077;28;20124;-64
2022/11/11 04:48:12;;;;;;;27.00;20.60;;;11.20;99.90;;;;;;5054252;28;20045;-65
2022/11/11 04:50:42;;;;;;;29.58;21.02;;;11.20;99.90;;;;;;5019198;28;20045;-65
2022/11/11 04:53:10;;;;;;;32.90;22.00;;;11.20;99.90;;;;;;5036869;28;20430;-64
2022/11/11 04:58:24;;;;;;;29.13;21.00;;;11.20;99.90;;;;;;5036002;28;20413;-65
2022/11/11 05:00:50;;;;;;;32.13;21.42;;;11.20;99.90;;;;;;5054017;28;20044;-64
2022/11/11 05:03:20;;;;;;;32.88;22.65;;;11.20;99.90;;;;;;5053304;28;20037;-65
2022/11/11 05:11:22;;;;;;;33.22;22.17;;;11.20;99.90;;;;;;5053188;28;20456;-64
2022/11/11 05:22:29;;;;;;;34.28;23.00;;;11.20;99.90;;;;;;5034633;28;20124;-65
2022/11/11 05:27:40;;;;;;;32.58;22.25;;;11.20;99.90;;;;;;5035780;28;20561;-64
2022/11/11 05:30:09;;;;;;;33.70;22.15;;;11.10;99.90;;;;;;5035424;28;20124;-65
2022/11/11 05:32:35;;;;;;;34.03;24.27;;;11.20;99.90;;;;;;5034606;28;20041;-66
2022/11/11 05:35:01;;;;;;;32.72;22.65;;;11.20;99.90;;;;;;5053186;28;20041;-65
2022/11/11 05:37:26;;;;;;;32.28;23.58;;;11.20;99.90;;;;;;5053244;28;20516;-64
2022/11/11 05:39:52;;;;;;;39.15;24.65;;;11.20;99.90;;;;;;5052435;28;20516;-65
2022/11/11 05:42:21;;;;;;;33.70;23.42;;;11.20;99.90;;;;;;5035284;28;20041;-65
2022/11/11 05:44:46;;;;;;;32.17;21.40;;;11.20;99.90;;;;;;5052292;28;20033;-65
2022/11/11 05:47:12;;;;;;;30.60;21.15;;;11.20;99.90;;;;;;5018973;28;20047;-65
2022/11/11 05:49:38;;;;;;;33.38;20.38;;;11.20;99.90;;;;;;5035193;28;20107;-65
2022/11/11 05:52:05;;;;;;;31.48;21.10;;;11.20;99.90;;;;;;5052235;28;20436;-65
2022/11/11 05:54:31;;;;;;;37.20;22.10;;;11.20;99.90;;;;;;5053094;28;20068;-65
2022/11/11 05:56:56;;;;;;;32.63;22.02;;;11.10;99.90;;;;;;5034856;28;20045;-65
2022/11/11 05:59:22;;;;;;;30.75;20.50;;;11.10;99.90;;;;;;5052236;28;20036;-65
2022/11/11 06:01:48;;;;;;;31.75;21.63;;;11.10;99.90;;;;;;5052970;28;20456;-65
2022/11/11 06:04:13;;;;;;;36.08;22.65;;;11.10;99.90;;;;;;5035038;28;20040;-65
2022/11/11 06:06:39;;;;;;;35.30;22.05;;;11.10;99.90;;;;;;5034582;28;20041;-65
2022/11/11 06:09:05;;;;;;;36.47;21.73;;;11.10;99.90;;;;;;5052525;28;20512;-65
2022/11/11 06:11:31;;;;;;;34.20;22.90;;;11.10;99.90;;;;;;5018489;28;20083;-65
2022/11/11 06:13:58;;;;;;;31.30;21.75;;;11.10;99.90;;;;;;5033950;28;20557;-65
2022/11/11 06:16:28;;;;;;;35.65;22.00;;;11.10;99.90;;;;;;5052573;28;20115;-65
2022/11/11 06:18:54;;;;;;;34.85;22.33;;;11.10;99.90;;;;;;5034653;28;20036;-65
2022/11/11 06:21:20;;;;;;;32.83;21.38;;;11.10;99.90;;;;;;5051848;28;20033;-65
2022/11/11 06:23:45;;;;;;;30.77;20.02;;;11.20;99.90;;;;;;5052432;28;20037;-65
2022/11/11 06:26:12;;;;;;;29.67;19.73;;;11.20;99.90;;;;;;5035107;28;20053;-65
2022/11/11 06:28:52;;;;;;;32.22;19.25;;;11.20;99.90;;;;;;5051505;28;20107;-64
2022/11/11 06:31:25;;;;;;;28.85;19.48;;;11.20;99.90;;;;;;5018289;28;20076;-65
2022/11/11 06:33:52;;;;;;;32.53;20.85;;;11.20;99.90;;;;;;5051412;28;20139;-65
2022/11/11 06:36:19;;;;;;;32.58;21.13;;;11.20;99.90;;;;;;5034367;28;20098;-64
2022/11/11 06:38:45;;;;;;;34.05;21.13;;;11.30;99.90;;;;;;5052370;28;20040;-65
2022/11/11 06:41:12;;;;;;;31.65;19.05;;;11.30;99.90;;;;;;5051711;28;20103;-65
2022/11/11 06:43:39;;;;;;;30.88;20.10;;;11.30;99.90;;;;;;5034174;28;20553;-65
2022/11/11 06:46:05;;;;;;;32.90;19.77;;;11.30;99.90;;;;;;5034398;28;20037;-65
2022/11/11 06:48:30;;;;;;;30.85;19.08;;;11.30;99.90;;;;;;5033468;28;20433;-66
2022/11/11 06:51:10;;;;;;;30.63;20.27;;;11.40;99.90;;;;;;5034219;28;20060;-65
2022/11/11 06:53:35;;;;;;;30.65;19.27;;;11.40;99.90;;;;;;5052127;28;20044;-65
2022/11/11 06:56:01;;;;;;;31.35;19.45;;;11.40;99.90;;;;;;5033653;28;20143;-65
2022/11/11 06:58:27;;;;;;;30.75;20.23;;;11.40;99.90;;;;;;5034106;28;20509;-65
2022/11/11 07:00:52;;;;;;;29.30;19.33;;;11.40;99.90;;;;;;5051818;28;20037;-65
2022/11/11 07:03:20;;;;;;;28.50;20.23;;;11.40;99.90;;;;;;5033384;28;20037;-65
2022/11/11 07:05:47;;;;;;;35.55;21.67;;;11.40;99.90;;;;;;5034254;28;20036;-65
2022/11/11 07:08:15;;;;;;;33.75;20.25;;;11.40;99.90;;;;;;5034346;28;20091;-65
2022/11/11 07:10:47;;;;;;;28.98;20.50;;;11.40;99.90;;;;;;5033134;28;20051;-65
2022/11/11 07:13:14;;;;;;;30.75;19.48;;;11.40;99.90;;;;;;5052196;28;20448;-65
2022/11/11 07:15:41;;;;;;;27.52;18.73;;;11.40;99.90;;;;;;5034537;28;20463;-65
2022/11/11 07:18:07;;;;;;;41.78;21.00;;;11.40;99.90;;;;;;5050949;28;20045;-65
2022/11/11 07:20:33;;;;;;;28.88;20.45;;;11.40;99.90;;;;;;5033833;28;20079;-65
2022/11/11 07:22:59;;;;;;;36.22;19.60;;;11.40;99.90;;;;;;5033922;28;20087;-65
2022/11/11 07:25:24;;;;;;;35.28;20.33;;;11.40;99.90;;;;;;5032898;28;20060;-65
2022/11/11 07:27:50;;;;;;;28.90;19.25;;;11.40;99.90;;;;;;5017348;28;20471;-65
2022/11/11 07:30:16;;;;;;;27.10;19.48;;;11.40;99.90;;;;;;5016408;28;20056;-65
2022/11/11 07:32:49;;;;;;;30.95;20.48;;;11.40;99.90;;;;;;5017670;28;20045;-65
2022/11/11 07:35:16;;;;;;;27.42;18.98;;;11.40;99.90;;;;;;5033836;28;20490;-64
2022/11/11 07:37:42;;;;;;;28.88;18.77;;;11.40;99.90;;;;;;5033049;28;20063;-65
2022/11/11 07:40:10;;;;;;;31.88;20.10;;;11.50;99.90;;;;;;5034065;28;20431;-65
2022/11/11 07:42:40;;;;;;;27.92;19.83;;;11.50;99.90;;;;;;5051641;28;20033;-65
2022/11/11 07:45:07;;;;;;;33.58;18.83;;;11.40;99.90;;;;;;5050589;28;20051;-64
2022/11/11 07:47:36;;;;;;;28.98;19.15;;;11.50;99.90;;;;;;5037877;28;20432;-65
2022/11/11 07:50:02;;;;;;;27.02;18.23;;;11.50;99.90;;;;;;5055594;28;20347;-65
2022/11/11 07:52:28;;;;;;;40.42;19.95;;;11.50;99.90;;;;;;5054495;28;20037;-65
2022/11/11 07:54:54;;;;;;;29.52;19.77;;;11.50;99.90;;;;;;5037236;28;20099;-65
2022/11/11 07:57:20;;;;;;;29.83;20.40;;;11.50;99.90;;;;;;5037374;28;20056;-65
2022/11/11 07:59:46;;;;;;;28.42;18.50;;;11.50;99.90;;;;;;5036360;28;20045;-63
2022/11/11 08:02:12;;;;;;;35.47;21.30;;;11.50;99.90;;;;;;5055537;28;20044;-66
2022/11/11 08:04:38;;;;;;;34.20;21.13;;;11.50;99.90;;;;;;5020911;28;20398;-65
2022/11/11 08:07:03;;;;;;;30.52;21.17;;;11.40;99.90;;;;;;5036337;28;20041;-65
2022/11/11 08:09:29;;;;;;;33.30;21.88;;;11.50;99.90;;;;;;5054831;28;20033;-66
2022/11/11 08:14:39;;;;;;;30.08;19.35;;;11.50;99.90;;;;;;5053344;28;20060;-65
2022/11/11 08:17:05;;;;;;;31.95;20.92;;;11.50;99.90;;;;;;5046885;28;20037;-66
2022/11/11 08:19:30;;;;;;;34.83;21.65;;;11.50;99.90;;;;;;5050918;28;20025;-65
2022/11/11 08:21:56;;;;;;;28.55;20.30;;;11.40;99.90;;;;;;5054074;28;20462;-64
2022/11/11 08:24:22;;;;;;;32.63;20.52;;;11.40;99.90;;;;;;5032863;28;20496;-66
2022/11/11 08:26:49;;;;;;;33.47;22.27;;;11.40;99.90;;;;;;5030132;28;20043;-67
2022/11/11 08:29:15;;;;;;;32.22;21.92;;;11.40;99.90;;;;;;5050847;28;20052;-66
2022/11/11 08:31:41;;;;;;;35.35;22.95;;;11.40;99.90;;;;;;5016978;28;20049;-66
2022/11/11 08:34:07;;;;;;;37.88;21.83;;;11.40;99.90;;;;;;5032964;28;20398;-66
2022/11/11 08:36:33;;;;;;;33.65;21.63;;;11.40;99.90;;;;;;5031752;28;20048;-66
2022/11/11 08:38:58;;;;;;;38.05;22.60;;;11.40;99.90;;;;;;5017759;28;20153;-67
2022/11/11 08:41:24;;;;;;;37.35;23.27;;;11.30;99.90;;;;;;5033427;28;20039;-65
2022/11/11 08:43:54;;;;;;;36.50;23.58;;;11.30;99.90;;;;;;5034420;28;20041;-67
2022/11/11 08:46:20;;;;;;;31.92;20.60;;;11.30;99.90;;;;;;5051546;28;20037;-63
2022/11/11 08:48:46;;;;;;;34.90;23.00;;;11.30;99.90;;;;;;5031609;28;20044;-63
2022/11/11 08:51:13;;;;;;;35.13;22.50;;;11.30;99.90;;;;;;5030557;28;20045;-63
2022/11/11 08:53:38;;;;;;;30.88;22.02;;;11.30;99.90;;;;;;5015022;28;20040;-64
2022/11/11 08:56:04;;;;;;;32.25;21.38;;;11.30;99.90;;;;;;5050350;28;20032;-63
2022/11/11 08:58:30;;;;;;;36.05;22.13;;;11.30;99.90;;;;;;5016638;28;20045;-64
2022/11/11 09:00:56;;;;;;;36.65;22.77;;;11.30;99.90;;;;;;5033262;28;20037;-65
2022/11/11 09:03:22;;;;;;;29.80;21.52;;;11.30;99.90;;;;;;5032198;28;20052;-66
2022/11/11 09:05:48;;;;;;;32.05;22.60;;;11.30;99.90;;;;;;5032904;28;20041;-65
2022/11/11 09:08:13;;;;;;;33.42;22.48;;;11.30;99.90;;;;;;5031875;28;20046;-65
2022/11/11 09:10:39;;;;;;;35.05;22.35;;;11.30;99.90;;;;;;5050360;28;20048;-64
2022/11/11 09:13:05;;;;;;;38.70;23.15;;;11.30;99.90;;;;;;5051299;28;20052;-62
2022/11/11 09:15:32;;;;;;;37.95;22.58;;;11.30;99.90;;;;;;5017284;28;20041;-62
2022/11/11 09:17:58;;;;;;;32.67;22.40;;;11.30;99.90;;;;;;5050673;28;20094;-62
2022/11/11 09:20:24;;;;;;;32.13;21.75;;;11.30;99.90;;;;;;5033377;28;20041;-62
2022/11/11 09:22:49;;;;;;;33.33;22.33;;;11.30;99.90;;;;;;5049625;28;20037;-62
2022/11/11 09:25:16;;;;;;;32.75;22.67;;;11.30;99.90;;;;;;5029549;28;20057;-62
2022/11/11 09:27:42;;;;;;;34.50;22.95;;;11.30;99.90;;;;;;5025316;28;20142;-62
2022/11/11 09:30:09;;;;;;;34.53;22.15;;;11.30;99.90;;;;;;5031148;28;20056;-62
2022/11/11 09:32:35;;;;;;;30.52;20.38;;;11.30;99.90;;;;;;5013669;28;20194;-62
2022/11/11 09:35:02;;;;;;;32.75;21.75;;;11.30;99.90;;;;;;5025046;28;20048;-63
2022/11/11 09:37:28;;;;;;;35.30;23.52;;;11.30;99.90;;;;;;5028275;28;20379;-62
2022/11/11 09:39:55;;;;;;;36.03;23.20;;;11.30;99.90;;;;;;5031703;28;20040;-63
2022/11/11 09:45:51;;;;;;;35.35;22.42;;;11.30;99.90;;;;;;5050133;28;20504;-62
2022/11/11 09:48:25;;;;;;;;;;;11.30;99.90;;;;;;5052290;28;20126;-62
2022/11/11 09:50:55;;;;;;;33.42;20.65;;;11.30;99.90;;;;;;5034450;28;19916;-62
2022/11/11 09:53:27;;;;;;;35.53;22.80;;;11.30;99.90;;;;;;5034815;28;20047;-61
2022/11/11 09:56:07;;;;;;;29.83;20.05;;;11.30;99.90;;;;;;5053207;28;20037;-62
2022/11/11 09:58:51;;;;;;;36.85;21.55;;;11.30;99.90;;;;;;5017443;28;20091;-62
2022/11/11 10:01:36;;;;;;;35.33;22.73;;;11.40;99.90;;;;;;5034688;28;20045;-62
2022/11/11 10:04:20;;;;;;;;;;;11.30;99.90;;;;;;5023348;28;20053;-61
2022/11/11 10:06:50;;;;;;;32.83;20.52;;;11.30;99.90;;;;;;4997854;28;19917;-62
2022/11/11 10:09:44;;;;;;;33.88;22.83;;;11.30;99.90;;;;;;5014818;28;20057;-62
2022/11/11 10:12:13;;;;;;;30.92;22.00;;;11.40;99.90;;;;;;5018262;28;20037;-64
2022/11/11 10:14:44;;;;;;;32.60;21.63;;;11.40;99.90;;;;;;5035191;28;20127;-61
2022/11/11 10:17:19;;;;;;;33.90;22.63;;;11.40;99.90;;;;;;5052883;28;20381;-63
2022/11/11 10:20:02;;;;;;;32.17;23.10;;;11.30;99.90;;;;;;5051944;28;20047;-63
2022/11/11 10:22:37;;;;;;;34.22;22.88;;;11.40;99.90;;;;;;5034807;28;20128;-63
2022/11/11 10:25:26;;;;;;;32.75;20.83;;;11.30;99.90;;;;;;5052268;28;20111;-63
2022/11/11 10:27:55;;;;;;;32.45;22.30;;;11.40;99.90;;;;;;5051355;28;20122;-63
2022/11/11 10:30:31;;;;;;;34.17;23.17;;;11.40;99.90;;;;;;5034898;28;20107;-63
2022/11/11 10:33:11;;;;;;;33.83;22.40;;;11.40;99.90;;;;;;5052199;28;20040;-61
2022/11/11 10:35:40;;;;;;;26.45;19.13;;;11.40;99.90;;;;;;5052384;28;20040;-61
2022/11/11 10:38:22;;;;;;;28.73;20.17;;;11.40;99.90;;;;;;5050435;28;20059;-61
2022/11/11 10:40:52;;;;;;;31.48;21.92;;;11.40;99.90;;;;;;5035757;28;20055;-63
2022/11/11 10:43:26;;;;;;;31.23;22.52;;;11.40;99.90;;;;;;5048358;28;20123;-61
2022/11/11 10:46:12;;;;;;;34.45;21.50;;;11.40;99.90;;;;;;5034599;28;20045;-63
2022/11/11 10:48:53;;;;;;;28.65;18.45;;;11.40;99.90;;;;;;5021450;28;20048;-63
2022/11/11 10:51:20;;;;;;;30.98;20.52;;;11.50;99.90;;;;;;5036509;28;20111;-62
2022/11/11 10:54:07;;;;;;;32.47;20.58;;;11.40;99.90;;;;;;5034511;28;20049;-62
2022/11/11 10:56:43;;;;;;;28.10;17.17;;;11.40;99.90;;;;;;5034297;28;20048;-61
2022/11/11 10:59:22;;;;;;;32.50;19.70;;;11.40;99.90;;;;;;5018186;28;20044;-62
2022/11/11 11:02:25;;;;;;;30.17;21.88;;;11.40;99.90;;;;;;5033521;28;20036;-64
2022/11/11 11:05:02;;;;;;;28.67;20.73;;;11.40;99.90;;;;;;5018078;28;20102;-63
2022/11/11 11:07:39;;;;;;;31.05;20.23;;;11.50;99.90;;;;;;5033628;28;20056;-62
2022/11/11 11:10:12;;;;;;;30.10;21.17;;;11.40;99.90;;;;;;5049795;28;20052;-64
2022/11/11 11:12:45;;;;;;;27.02;20.00;;;11.50;99.90;;;;;;5032105;28;20046;-64
2022/11/11 11:15:20;;;;;;;27.65;20.20;;;11.50;99.90;;;;;;5044463;28;20109;-63
2022/11/11 11:18:02;;;;;;;28.35;19.63;;;11.50;99.90;;;;;;5033893;28;20517;-64
2022/11/11 11:20:27;;;;;;;27.70;19.15;;;11.50;99.90;;;;;;5034645;28;20048;-64
2022/11/11 11:22:58;;;;;;;34.42;21.33;;;11.50;99.90;;;;;;5037322;28;20041;-63
2022/11/11 11:25:24;;;;;;;27.83;19.17;;;11.60;99.90;;;;;;5055620;28;20513;-64
2022/11/11 11:27:52;;;;;;;29.08;19.05;;;11.60;99.90;;;;;;5037885;28;20072;-63
2022/11/11 11:30:20;;;;;;;28.00;19.33;;;11.60;99.90;;;;;;5036939;28;20059;-63
2022/11/11 11:33:00;;;;;;;28.95;20.10;;;11.60;99.90;;;;;;5037951;28;20045;-63
2022/11/11 11:35:30;;;;;;;26.67;17.85;;;11.60;99.90;;;;;;5038030;28;20041;-62
2022/11/11 11:37:55;;;;;;;26.05;19.33;;;11.60;99.90;;;;;;5036846;28;20041;-61
2022/11/11 11:40:21;;;;;;;28.15;18.63;;;11.60;99.90;;;;;;5037650;28;20052;-62
2022/11/11 11:42:47;;;;;;;29.98;19.08;;;11.60;99.90;;;;;;5055430;28;20041;-61
2022/11/11 11:45:31;;;;;;;28.58;18.25;;;11.50;99.90;;;;;;5020655;28;20405;-62
2022/11/11 11:48:20;;;;;;;32.00;19.00;;;11.60;99.90;;;;;;5037433;28;20087;-64
2022/11/11 11:50:50;;;;;;;33.20;20.50;;;11.50;99.90;;;;;;5036033;28;20223;-63
2022/11/11 11:53:37;;;;;;;28.33;19.05;;;11.50;99.90;;;;;;5037651;28;20052;-62
2022/11/11 11:56:20;;;;;;;29.88;20.40;;;11.50;99.90;;;;;;5037399;28;20124;-63
2022/11/11 11:59:20;;;;;;;28.00;18.17;;;11.50;99.90;;;;;;5036482;28;20041;-63
2022/11/11 12:02:16;;;;;;;28.13;18.95;;;11.40;99.90;;;;;;5037103;28;20056;-62
2022/11/11 12:05:06;;;;;;;31.23;19.48;;;11.50;99.90;;;;;;5054566;28;20079;-63
2022/11/11 12:08:04;;;;;;;28.73;17.70;;;11.40;99.90;;;;;;5037173;28;20493;-63
2022/11/11 12:10:36;;;;;;;31.55;19.33;;;11.50;99.90;;;;;;5037273;28;20041;-63
2022/11/11 12:13:12;;;;;;;34.25;20.05;;;11.40;99.90;;;;;;5054332;28;20044;-63
2022/11/11 12:15:41;;;;;;;27.92;18.65;;;11.40;99.90;;;;;;5055125;28;20049;-63
2022/11/11 12:18:16;;;;;;;30.63;18.85;;;11.40;99.90;;;;;;5054846;28;20083;-64
2022/11/11 12:21:03;;;;;;;27.40;19.60;;;11.40;99.90;;;;;;5036527;28;20037;-62
2022/11/11 12:23:43;;;;;;;28.95;19.27;;;11.40;99.90;;;;;;5040103;28;20067;-62
2022/11/11 12:26:24;;;;;;;28.05;19.08;;;11.40;99.90;;;;;;5056205;28;20109;-62
2022/11/11 12:29:08;;;;;;;31.13;19.02;;;11.40;99.90;;;;;;5057020;28;20064;-63
2022/11/11 12:32:02;;;;;;;29.48;18.77;;;11.40;99.90;;;;;;5034951;28;20088;-65
2022/11/11 12:34:57;;;;;;;29.73;20.20;;;11.50;99.90;;;;;;5053525;28;20053;-65
2022/11/11 12:37:23;;;;;;;;;;;11.50;99.90;;;;;;5030274;28;20118;-65
2022/11/11 12:40:19;;;;;;;30.65;19.50;;;11.50;99.90;;;;;;5032920;28;19955;-65
2022/11/11 12:43:03;;;;;;;32.53;20.55;;;11.50;99.90;;;;;;5017956;28;20048;-65
2022/11/11 12:46:01;;;;;;;27.33;19.70;;;11.50;99.90;;;;;;5033286;28;20045;-65
2022/11/11 12:48:55;;;;;;;25.85;18.02;;;11.50;99.90;;;;;;4992464;28;20044;-65
2022/11/11 12:51:42;;;;;;;37.83;21.02;;;11.40;99.90;;;;;;5030118;28;20048;-65
2022/11/11 12:54:23;;;;;;;32.58;20.35;;;11.50;99.90;;;;;;5050628;28;20478;-65
2022/11/11 12:57:04;;;;;;;32.17;20.15;;;11.50;99.90;;;;;;5052020;28;20048;-63
2022/11/11 12:59:36;;;;;;;29.17;19.08;;;11.50;99.90;;;;;;5039548;28;20029;-64
2022/11/11 13:02:16;;;;;;;28.30;19.23;;;11.50;99.90;;;;;;5044261;28;20075;-62
2022/11/11 13:04:51;;;;;;;28.00;17.40;;;11.50;99.90;;;;;;5035594;28;20509;-63
2022/11/11 13:07:57;;;;;;;25.63;18.85;;;11.50;99.90;;;;;;5051167;28;20131;-63
2022/11/11 13:10:32;;;;;;;;;;;11.50;99.90;;;;;;5032776;28;20505;-62
2022/11/11 13:13:10;;;;;;;29.20;19.77;;;11.50;99.90;;;;;;5032907;28;19917;-62
2022/11/11 13:15:35;;;;;;;31.92;19.65;;;11.50;99.90;;;;;;5050416;28;20052;-62
2022/11/11 13:18:02;;;;;;;31.08;18.48;;;11.50;99.90;;;;;;5061270;28;20336;-65
2022/11/11 13:20:33;;;;;;;27.52;17.80;;;11.50;99.90;;;;;;5052790;28;20374;-65
2022/11/11 13:23:02;;;;;;;27.90;18.23;;;11.50;99.90;;;;;;5052254;28;20043;-65
2022/11/11 13:25:33;;;;;;;26.10;18.45;;;11.50;99.90;;;;;;5052863;28;20044;-65
2022/11/11 13:28:02;;;;;;;26.95;19.02;;;11.50;99.90;;;;;;5036176;28;20048;-64
2022/11/11 13:31:16;;;;;;;28.95;19.10;;;11.50;99.90;;;;;;5052182;28;20040;-65
2022/11/11 13:33:52;;;;;;;29.90;19.20;;;11.60;99.90;;;;;;5033903;28;20550;-65
2022/11/11 13:36:21;;;;;;;29.08;18.88;;;11.50;99.90;;;;;;5049429;28;20044;-64
2022/11/11 13:38:54;;;;;;;28.13;18.13;;;11.50;99.90;;;;;;5027204;28;20045;-65
2022/11/11 13:41:31;;;;;;;32.63;20.00;;;11.50;99.90;;;;;;5041692;28;20133;-62
2022/11/11 13:43:59;;;;;;;26.10;17.52;;;11.50;99.90;;;;;;5030939;28;20037;-62
2022/11/11 13:46:39;;;;;;;28.30;18.98;;;11.50;99.90;;;;;;5050465;28;20036;-62
2022/11/11 13:49:28;;;;;;;28.48;20.00;;;11.50;99.90;;;;;;5049339;28;20392;-64
2022/11/11 13:52:31;;;;;;;28.60;20.70;;;11.50;99.90;;;;;;5018947;28;20091;-64
2022/11/11 13:55:08;;;;;;;28.88;19.27;;;11.50;99.90;;;;;;5049604;28;20040;-65
2022/11/11 13:57:49;;;;;;;28.60;19.10;;;11.50;99.90;;;;;;5047441;28;20097;-65
2022/11/11 14:00:28;;;;;;;26.58;17.90;;;11.50;99.90;;;;;;5046930;28;20116;-64
2022/11/11 14:03:16;;;;;;;26.45;18.58;;;11.50;99.90;;;;;;5032054;28;20040;-64